Time;durP1;ratioP1;P1;durP2;ratioP2;P2;SDS_P1;SDS_P2;PMS_P1;PMS_P2;Temp;Humidity;BMP_temperature;BMP_pressure;BME280_temperature;BME280_humidity;BME280_pressure;Samples;Min_cycle;Max_cycle;Signal;HPM_P1;HPM_P2
2022/09/27 00:00:20;;;;;;;4.50;1.00;;;;;;;14.34;95.47;99593.88;5072600;28;20154;-82
2022/09/27 00:02:48;;;;;;;5.65;0.88;;;;;;;14.55;94.83;99602.34;5072897;28;20095;-83
2022/09/27 00:05:14;;;;;;;6.22;0.88;;;;;;;14.45;96.02;99601.59;5071465;28;20555;-82
2022/09/27 00:07:39;;;;;;;5.32;0.95;;;;;;;14.48;95.28;99596.00;5072751;28;20024;-83
2022/09/27 00:10:05;;;;;;;5.45;1.40;;;;;;;14.49;94.51;99597.66;5071255;28;20024;-83
2022/09/27 00:12:30;;;;;;;9.68;1.10;;;;;;;14.41;94.25;99589.66;5071164;28;20024;-83
2022/09/27 00:14:56;;;;;;;10.13;1.20;;;;;;;14.15;94.65;99586.91;5072540;28;20108;-83
2022/09/27 00:17:21;;;;;;;8.10;0.90;;;;;;;14.14;95.42;99587.84;5072565;28;20024;-82
2022/09/27 00:19:46;;;;;;;8.40;1.05;;;;;;;14.20;94.08;99597.84;5072429;28;20040;-82
2022/09/27 00:22:12;;;;;;;6.43;1.30;;;;;;;14.07;94.61;99592.91;5072463;28;20021;-83
2022/09/27 00:24:37;;;;;;;7.03;1.00;;;;;;;13.70;95.64;99591.09;5072503;28;20470;-82
2022/09/27 00:27:02;;;;;;;7.22;1.95;;;;;;;13.98;95.09;99601.69;5071498;28;20469;-82
2022/09/27 00:29:28;;;;;;;7.43;1.25;;;;;;;13.83;95.33;99607.44;5072362;28;20051;-83
2022/09/27 00:31:53;;;;;;;9.90;1.88;;;;;;;14.07;94.44;99599.00;5072356;28;20023;-83
2022/09/27 00:34:24;;;;;;;8.82;1.10;;;;;;;13.77;95.74;99597.47;5072136;28;20016;-83
2022/09/27 00:36:51;;;;;;;6.65;1.00;;;;;;;14.04;94.97;99601.09;5072243;28;20032;-82
2022/09/27 00:39:17;;;;;;;5.47;1.52;;;;;;;14.22;94.44;99595.91;5072359;28;20028;-82
2022/09/27 00:41:44;;;;;;;6.53;1.50;;;;;;;14.02;94.94;99601.28;5071420;28;20401;-83
2022/09/27 00:44:28;;;;;;;6.78;1.90;;;;;;;14.10;95.10;99611.09;5072290;28;20055;-83
2022/09/27 00:47:10;;;;;;;4.82;0.95;;;;;;;14.23;94.70;99603.66;5072217;28;20024;-83
2022/09/27 00:49:42;;;;;;;7.10;1.35;;;;;;;14.14;93.58;99604.56;5072039;28;20135;-82
2022/09/27 00:52:13;;;;;;;9.95;1.55;;;;;;;14.02;95.73;99600.41;5072134;28;20500;-82
2022/09/27 00:54:41;;;;;;;12.23;2.17;;;;;;;14.11;94.93;99589.00;5071553;28;20020;-83
2022/09/27 00:57:07;;;;;;;4.40;1.00;;;;;;;14.14;95.78;99599.28;5071278;28;20288;-82
2022/09/27 00:59:38;;;;;;;8.10;1.38;;;;;;;14.04;96.56;99598.47;5071674;28;20028;-82
2022/09/27 01:02:05;;;;;;;7.25;1.30;;;;;;;13.95;96.61;99594.91;5071846;28;20478;-82
2022/09/27 01:04:32;;;;;;;8.52;1.30;;;;;;;13.78;97.15;99598.31;5071885;28;20039;-82
2022/09/27 01:06:58;;;;;;;8.13;1.20;;;;;;;13.77;97.00;99596.66;5071576;28;20538;-82
2022/09/27 01:09:24;;;;;;;9.15;1.60;;;;;;;13.82;96.66;99600.53;5071970;28;20032;-82
2022/09/27 01:12:17;;;;;;;5.25;1.15;;;;;;;13.89;96.85;99601.59;5070838;28;20490;-83
2022/09/27 01:15:12;;;;;;;8.05;1.50;;;;;;;13.63;97.18;99585.59;5071781;28;20024;-82
2022/09/27 01:17:37;;;;;;;6.05;0.90;;;;;;;13.67;97.75;99578.22;5069194;28;20036;-82
2022/09/27 01:20:36;;;;;;;8.02;1.67;;;;;;;13.77;97.38;99581.66;5066578;28;20025;-82
2022/09/27 01:23:38;;;;;;;7.03;0.90;;;;;;;13.81;96.95;99571.66;5051368;28;20036;-82
2022/09/27 01:26:31;;;;;;;9.93;1.90;;;;;;;13.78;97.51;99578.03;5059279;28;21012;-82
2022/09/27 01:29:36;;;;;;;11.75;1.33;;;;;;;13.75;96.36;99578.34;5071557;28;20487;-83
2022/09/27 01:32:12;;;;;;;6.65;2.03;;;;;;;13.77;96.38;99575.56;5071644;28;20543;-82
2022/09/27 01:34:57;;;;;;;12.13;2.45;;;;;;;13.57;96.16;99577.44;5071687;28;20042;-82
2022/09/27 01:37:50;;;;;;;13.82;1.85;;;;;;;13.69;95.93;99568.34;5071658;28;20386;-82
2022/09/27 01:40:23;;;;;;;5.47;0.98;;;;;;;13.80;93.41;99562.91;5070765;28;20090;-82
2022/09/27 01:42:48;;;;;;;9.38;1.65;;;;;;;13.58;93.75;99565.91;5071807;28;20024;-82
2022/09/27 01:45:20;;;;;;;12.75;1.58;;;;;;;13.66;94.39;99564.22;5071801;28;20500;-82
2022/09/27 01:48:17;;;;;;;14.43;2.33;;;;;;;13.86;93.78;99559.69;5071705;28;20032;-82
2022/09/27 01:51:08;;;;;;;11.38;1.25;;;;;;;13.89;93.42;99553.28;5071884;28;20082;-82
2022/09/27 01:53:41;;;;;;;13.50;1.55;;;;;;;13.79;94.42;99553.31;5070829;28;20086;-83
2022/09/27 01:56:14;;;;;;;6.18;1.20;;;;;;;13.80;93.35;99557.63;5069629;28;20375;-82
2022/09/27 01:58:48;;;;;;;8.73;1.27;;;;;;;13.66;94.52;99564.22;5070247;28;20013;-82
2022/09/27 02:01:17;;;;;;;10.30;1.73;;;;;;;13.69;92.55;99555.16;5071727;28;20024;-82
2022/09/27 02:03:48;;;;;;;11.85;1.50;;;;;;;13.63;94.21;99547.84;5071676;28;20451;-83
2022/09/27 02:06:19;;;;;;;4.70;1.30;;;;;;;13.71;91.79;99555.84;5073247;28;20024;-83
2022/09/27 02:09:10;;;;;;;7.40;1.08;;;;;;;13.82;92.13;99553.03;5075019;28;20028;-82
2022/09/27 02:11:39;;;;;;;7.72;1.35;;;;;;;13.66;93.54;99558.09;5074090;28;20037;-82
2022/09/27 02:14:04;;;;;;;9.88;1.50;;;;;;;13.53;93.13;99562.88;5074916;28;20383;-82
2022/09/27 02:16:30;;;;;;;13.13;1.73;;;;;;;13.68;93.78;99561.41;5073625;28;20036;-82
2022/09/27 02:19:16;;;;;;;7.28;1.58;;;;;;;13.86;92.68;99553.53;5074765;28;20025;-82
2022/09/27 02:21:53;;;;;;;4.68;1.08;;;;;;;13.67;93.00;99546.56;5074690;28;20058;-82
2022/09/27 02:24:23;;;;;;;7.95;1.25;;;;;;;13.90;92.96;99544.34;5074823;28;20024;-82
2022/09/27 02:27:00;;;;;;;11.10;1.65;;;;;;;13.94;91.48;99550.19;5073807;28;20032;-83
2022/09/27 02:29:36;;;;;;;6.28;1.42;;;;;;;14.12;89.76;99543.16;5074503;28;20078;-83
2022/09/27 02:32:01;;;;;;;14.60;1.83;;;;;;;14.09;91.66;99546.06;5074747;28;20057;-83
2022/09/27 02:34:30;;;;;;;6.38;1.10;;;;;;;14.17;91.90;99548.81;5074531;28;20024;-83
2022/09/27 02:36:55;;;;;;;11.60;1.63;;;;;;;14.20;90.81;99545.88;5074670;28;20039;-82
2022/09/27 02:39:22;;;;;;;8.20;1.60;;;;;;;13.99;91.99;99546.13;5073474;28;20028;-83
2022/09/27 02:41:47;;;;;;;16.15;1.55;;;;;;;13.96;91.15;99546.44;5074325;28;20103;-83
2022/09/27 02:44:15;;;;;;;8.32;1.60;;;;;;;14.09;92.18;99538.16;5074480;28;20048;-83
2022/09/27 02:46:51;;;;;;;11.20;1.98;;;;;;;14.11;91.87;99532.75;5072874;28;20035;-82
2022/09/27 02:49:47;;;;;;;7.05;1.83;;;;;;;13.84;92.66;99523.84;5054900;28;20021;-83
2022/09/27 02:52:27;;;;;;;9.13;1.48;;;;;;;14.15;92.02;99526.19;5054630;28;20033;-82
2022/09/27 02:55:11;;;;;;;10.35;1.80;;;;;;;13.53;94.05;99516.22;5054312;28;20688;-83
2022/09/27 02:57:49;;;;;;;13.73;2.58;;;;;;;13.74;93.62;99509.88;5054482;28;20017;-83
2022/09/27 03:00:27;;;;;;;13.30;2.33;;;;;;;13.53;94.74;99512.75;5054048;28;20112;-82
2022/09/27 03:03:09;;;;;;;9.18;2.38;;;;;;;14.00;92.74;99502.09;5067126;28;20025;-83
2022/09/27 03:05:51;;;;;;;10.52;1.88;;;;;;;13.93;93.04;99493.94;5074692;28;20074;-83
2022/09/27 03:08:17;;;;;;;16.98;2.63;;;;;;;13.84;93.94;99498.31;5074668;28;20024;-83
2022/09/27 03:10:43;;;;;;;13.98;2.03;;;;;;;13.95;93.89;99491.16;5074593;28;20543;-83
2022/09/27 03:13:08;;;;;;;10.70;1.92;;;;;;;13.88;93.52;99494.41;5074412;28;20059;-83
2022/09/27 03:15:34;;;;;;;10.93;2.25;;;;;;;13.87;95.02;99492.72;5074221;28;20040;-83
2022/09/27 03:17:59;;;;;;;14.18;1.67;;;;;;;13.94;94.92;99487.69;5072262;28;20035;-83
2022/09/27 03:20:25;;;;;;;13.15;2.25;;;;;;;13.93;94.50;99491.31;5074752;28;20028;-83
2022/09/27 03:22:50;;;;;;;11.38;2.47;;;;;;;13.95;94.77;99493.81;5074639;28;20034;-83
2022/09/27 03:25:15;;;;;;;14.32;2.50;;;;;;;14.00;94.40;99488.88;5074319;28;20025;-83
2022/09/27 03:27:42;;;;;;;13.30;1.80;;;;;;;13.94;94.80;99502.69;5074154;28;20040;-83
2022/09/27 03:30:09;;;;;;;10.38;1.95;;;;;;;13.76;96.72;99500.00;5074050;28;20020;-83
2022/09/27 03:32:34;;;;;;;11.27;1.90;;;;;;;13.92;96.58;99500.22;5073142;28;20036;-83
2022/09/27 03:35:00;;;;;;;6.38;1.38;;;;;;;14.00;95.88;99491.53;5074155;28;20070;-83
2022/09/27 03:37:28;;;;;;;14.30;2.65;;;;;;;13.78;98.01;99493.59;5074028;28;20082;-83
2022/09/27 03:39:53;;;;;;;17.20;2.53;;;;;;;13.86;97.20;99485.78;5073809;28;20094;-83
2022/09/27 03:42:19;;;;;;;11.95;2.17;;;;;;;13.93;96.34;99472.00;5074188;28;20496;-83
2022/09/27 03:44:44;;;;;;;16.02;2.33;;;;;;;13.93;96.75;99464.09;5073937;28;20033;-83
2022/09/27 03:47:09;;;;;;;11.88;2.30;;;;;;;14.05;94.91;99458.44;5071696;28;20378;-83
2022/09/27 03:49:35;;;;;;;14.77;2.53;;;;;;;13.95;96.03;99462.13;5073633;28;20086;-83
2022/09/27 03:52:00;;;;;;;17.33;3.42;;;;;;;13.95;95.71;99460.31;5073875;28;20066;-83
2022/09/27 03:54:26;;;;;;;13.57;3.45;;;;;;;13.95;95.71;99465.59;5073736;28;20025;-83
2022/09/27 03:56:51;;;;;;;18.95;2.67;;;;;;;13.75;96.72;99467.53;5073722;28;20111;-83
2022/09/27 03:59:16;;;;;;;10.43;2.20;;;;;;;13.70;96.97;99464.47;5073384;28;20063;-83
2022/09/27 04:01:43;;;;;;;11.77;2.42;;;;;;;13.66;96.71;99457.84;5072952;28;20059;-83
2022/09/27 04:04:09;;;;;;;16.80;2.75;;;;;;;13.58;97.70;99457.75;5073557;28;20441;-83
2022/09/27 04:06:34;;;;;;;13.70;2.45;;;;;;;13.47;98.65;99454.34;5073657;28;20104;-83
2022/09/27 04:09:00;;;;;;;15.07;2.70;;;;;;;13.55;97.77;99466.81;5073717;28;20021;-83
2022/09/27 04:11:25;;;;;;;10.48;2.53;;;;;;;13.29;100.00;99466.63;5073460;28;20032;-83
2022/09/27 04:13:51;;;;;;;22.10;4.13;;;;;;;13.17;100.00;99462.47;5073122;28;20052;-83
2022/09/27 04:16:16;;;;;;;16.60;2.67;;;;;;;13.50;99.39;99463.75;5071984;28;20119;-83
2022/09/27 04:18:42;;;;;;;17.35;2.97;;;;;;;13.75;97.68;99459.59;5072948;28;20093;-83
2022/09/27 04:21:08;;;;;;;14.68;3.17;;;;;;;13.89;96.73;99451.19;5073000;28;20032;-83
2022/09/27 04:23:33;;;;;;;15.82;3.42;;;;;;;13.90;95.85;99449.38;5071798;28;20029;-83
2022/09/27 04:25:58;;;;;;;17.13;2.78;;;;;;;13.91;96.70;99451.03;5072895;28;20386;-83
2022/09/27 04:28:24;;;;;;;18.10;3.28;;;;;;;14.13;95.60;99455.03;5073052;28;20099;-83
2022/09/27 04:30:49;;;;;;;22.30;3.17;;;;;;;13.59;96.56;99448.88;5071830;28;20117;-83
2022/09/27 04:33:15;;;;;;;14.02;2.30;;;;;;;14.00;95.09;99444.88;5073199;28;20039;-83
2022/09/27 04:38:25;;;;;;;16.35;2.50;;;;;;;14.10;94.09;99439.53;5070608;28;20044;-83
2022/09/27 04:40:50;;;;;;;10.60;2.08;;;;;;;14.31;92.58;99441.03;5072204;28;20024;-83
2022/09/27 04:43:16;;;;;;;17.60;3.97;;;;;;;14.31;92.75;99433.91;5071672;28;20016;-83
2022/09/27 04:45:43;;;;;;;15.60;3.00;;;;;;;14.26;91.30;99434.38;5071807;28;20115;-83
2022/09/27 04:48:09;;;;;;;14.65;2.90;;;;;;;14.24;90.67;99431.06;5071596;28;20028;-83
2022/09/27 04:50:34;;;;;;;17.75;3.88;;;;;;;13.98;91.22;99424.88;5071665;28;20038;-83
2022/09/27 04:53:00;;;;;;;13.73;2.88;;;;;;;13.78;92.51;99435.56;5068159;28;20036;-83
2022/09/27 04:55:26;;;;;;;13.48;2.33;;;;;;;14.32;89.97;99434.78;5071926;28;20028;-82
2022/09/27 04:57:52;;;;;;;24.15;3.00;;;;;;;14.42;89.06;99441.63;5071481;28;20078;-83
2022/09/27 05:00:17;;;;;;;13.30;2.50;;;;;;;14.15;89.43;99447.81;5070893;28;20025;-83
2022/09/27 05:02:44;;;;;;;17.23;2.92;;;;;;;14.36;87.72;99455.44;5071827;28;20029;-83
2022/09/27 05:05:09;;;;;;;18.95;2.45;;;;;;;13.82;90.95;99444.84;5070707;28;20039;-83
2022/09/27 05:07:37;;;;;;;25.70;2.75;;;;;;;13.86;90.84;99448.00;5068576;28;20025;-83
2022/09/27 05:10:03;;;;;;;18.15;2.35;;;;;;;14.25;88.67;99451.19;5070461;28;20390;-83
2022/09/27 05:12:28;;;;;;;20.77;3.78;;;;;;;14.22;87.94;99459.44;5070766;28;20029;-83
2022/09/27 05:14:54;;;;;;;22.33;2.97;;;;;;;14.76;85.49;99453.28;5070740;28;20107;-83
2022/09/27 05:17:21;;;;;;;24.65;2.90;;;;;;;14.50;87.35;99451.41;5070811;28;20056;-83
2022/09/27 05:19:46;;;;;;;15.07;3.75;;;;;;;14.43;88.43;99445.06;5070383;28;20028;-83
2022/09/27 05:22:12;;;;;;;15.02;2.03;;;;;;;14.47;88.63;99428.78;5069824;28;20039;-83
2022/09/27 05:24:38;;;;;;;20.42;2.92;;;;;;;14.46;88.66;99434.22;5070314;28;20109;-83
2022/09/27 05:27:06;;;;;;;18.60;3.13;;;;;;;14.11;89.84;99435.06;5067567;28;20140;-83
2022/09/27 05:29:32;;;;;;;17.83;3.20;;;;;;;14.04;90.56;99440.94;5069277;28;20024;-83
2022/09/27 05:31:58;;;;;;;15.15;2.22;;;;;;;14.02;91.29;99431.50;5070046;28;20031;-83
2022/09/27 05:34:23;;;;;;;10.50;2.20;;;;;;;14.12;90.97;99424.38;5070130;28;20025;-83
2022/09/27 05:36:49;;;;;;;15.27;2.30;;;;;;;14.12;90.90;99428.78;5067729;28;20039;-83
2022/09/27 05:39:16;;;;;;;9.32;2.00;;;;;;;14.05;91.91;99441.78;5066129;28;20620;-83
2022/09/27 05:41:42;;;;;;;14.88;2.65;;;;;;;14.17;92.43;99443.19;5072910;28;20362;-83
2022/09/27 05:44:07;;;;;;;13.68;2.65;;;;;;;14.16;91.17;99438.91;5073340;28;20056;-83
2022/09/27 05:46:32;;;;;;;14.05;3.05;;;;;;;14.27;91.54;99429.94;5074164;28;20056;-83
2022/09/27 05:48:58;;;;;;;14.02;3.42;;;;;;;14.36;91.66;99439.59;5074466;28;20023;-84
2022/09/27 05:51:23;;;;;;;13.60;2.47;;;;;;;14.46;91.32;99429.75;5072215;28;20040;-84
2022/09/27 05:53:48;;;;;;;10.63;2.40;;;;;;;14.36;92.22;99430.84;5074036;28;20616;-84
2022/09/27 05:56:14;;;;;;;20.33;3.60;;;;;;;14.33;93.01;99429.31;5074199;28;20098;-85
2022/09/27 05:58:39;;;;;;;15.80;3.40;;;;;;;14.34;92.97;99443.38;5074346;28;20036;-84
2022/09/27 06:01:08;;;;;;;15.32;2.70;;;;;;;14.40;94.04;99440.13;5073887;28;20033;-84
2022/09/27 06:03:35;;;;;;;14.40;2.38;;;;;;;14.32;93.53;99435.59;5075078;28;20048;-84
2022/09/27 06:06:04;;;;;;;21.25;3.35;;;;;;;14.32;94.88;99440.88;5072055;28;20056;-84
2022/09/27 06:08:33;;;;;;;13.40;2.53;;;;;;;14.17;96.59;99435.28;5073697;28;20025;-84
2022/09/27 06:11:07;;;;;;;11.00;2.58;;;;;;;14.23;96.84;99439.94;5073540;28;20457;-84
2022/09/27 06:13:35;;;;;;;14.40;3.45;;;;;;;14.31;96.57;99435.75;5073078;28;20032;-84
2022/09/27 06:16:01;;;;;;;17.15;2.58;;;;;;;14.17;97.46;99435.28;5073316;28;20052;-84
2022/09/27 06:18:26;;;;;;;15.27;2.25;;;;;;;14.41;95.78;99433.84;5073712;28;20024;-84
2022/09/27 06:20:52;;;;;;;16.35;3.30;;;;;;;13.99;98.75;99437.09;5072418;28;20082;-85
2022/09/27 06:23:21;;;;;;;13.35;2.72;;;;;;;14.25;98.19;99435.34;5074389;28;20029;-84
2022/09/27 06:25:48;;;;;;;12.90;2.88;;;;;;;14.45;97.32;99440.47;5074434;28;20078;-84
2022/09/27 06:28:14;;;;;;;16.83;3.63;;;;;;;13.99;100.00;99434.47;5074566;28;20024;-84
2022/09/27 06:30:42;;;;;;;28.80;3.72;;;;;;;14.40;100.00;99434.84;5073351;28;20044;-84
2022/09/27 06:33:11;;;;;;;22.73;4.32;;;;;;;14.58;100.00;99433.00;5074607;28;20028;-84
2022/09/27 06:35:37;;;;;;;20.45;3.50;;;;;;;14.27;100.00;99424.66;5072676;28;20025;-84
2022/09/27 06:38:04;;;;;;;23.00;4.53;;;;;;;14.37;100.00;99433.31;5074406;28;20077;-85
2022/09/27 06:40:29;;;;;;;24.48;4.10;;;;;;;14.03;100.00;99422.63;5074407;28;20062;-85
2022/09/27 06:43:03;;;;;;;24.48;3.55;;;;;;;14.58;100.00;99425.09;5074373;28;20025;-84
2022/09/27 06:45:30;;;;;;;16.95;2.55;;;;;;;14.68;100.00;99432.94;5074536;28;20493;-84
2022/09/27 06:47:56;;;;;;;19.27;3.60;;;;;;;14.57;100.00;99426.06;5073717;28;20478;-85
2022/09/27 06:50:21;;;;;;;10.50;2.08;;;;;;;14.68;100.00;99420.53;5072331;28;20047;-85
2022/09/27 06:52:48;;;;;;;18.95;3.63;;;;;;;14.29;100.00;99412.13;5070640;28;20493;-84
2022/09/27 06:55:13;;;;;;;12.80;2.97;;;;;;;14.56;100.00;99408.56;5072825;28;20023;-85
2022/09/27 07:00:22;;;;;;;16.08;3.15;;;;;;;14.74;100.00;99400.59;5073601;28;20039;-85
2022/09/27 07:02:49;;;;;;;16.00;3.58;;;;;;;14.98;99.13;99388.50;5074194;28;20029;-84
2022/09/27 07:05:15;;;;;;;18.45;3.25;;;;;;;15.13;98.28;99378.19;5073075;28;20031;-84
2022/09/27 07:07:41;;;;;;;17.30;3.17;;;;;;;15.04;100.00;99374.66;5073594;28;20024;-85
2022/09/27 07:10:07;;;;;;;20.95;3.65;;;;;;;15.23;99.55;99370.94;5073075;28;20025;-84
2022/09/27 07:12:35;;;;;;;21.15;4.55;;;;;;;14.99;100.00;99369.84;5073130;28;20040;-84
2022/09/27 07:15:00;;;;;;;27.77;3.63;;;;;;;15.31;100.00;99380.72;5073107;28;20027;-85
2022/09/27 07:17:26;;;;;;;19.65;3.42;;;;;;;16.23;94.28;99371.81;5073540;28;20033;-85
2022/09/27 07:19:52;;;;;;;24.67;4.60;;;;;;;16.11;94.91;99367.81;5073084;28;20028;-85
2022/09/27 07:22:18;;;;;;;21.13;4.05;;;;;;;16.21;94.07;99376.44;5072842;28;20056;-84
2022/09/27 07:24:43;;;;;;;21.25;3.85;;;;;;;16.23;96.01;99378.91;5073261;28;20071;-85
2022/09/27 07:27:09;;;;;;;23.88;4.13;;;;;;;16.87;91.93;99379.03;5072270;28;20078;-86
2022/09/27 07:29:34;;;;;;;16.90;3.28;;;;;;;18.09;86.43;99386.53;5071271;28;20082;-84
2022/09/27 07:32:00;;;;;;;19.35;3.72;;;;;;;17.64;87.06;99375.72;5072510;28;20093;-85
2022/09/27 07:34:26;;;;;;;19.48;3.85;;;;;;;17.75;86.03;99361.19;5072876;28;20036;-85
2022/09/27 07:36:53;;;;;;;27.58;4.22;;;;;;;17.25;88.16;99363.31;5071696;28;20039;-85
2022/09/27 07:39:20;;;;;;;20.02;2.90;;;;;;;17.49;87.97;99356.22;5073228;28;20432;-85
2022/09/27 07:41:46;;;;;;;11.48;3.17;;;;;;;17.41;86.86;99342.00;5071981;28;20028;-86
2022/09/27 07:44:15;;;;;;;23.92;3.97;;;;;;;17.37;87.80;99361.09;5072362;28;20103;-86
2022/09/27 07:46:40;;;;;;;17.48;4.20;;;;;;;16.89;91.11;99360.31;5073046;28;20386;-85
2022/09/27 07:49:06;;;;;;;21.42;3.80;;;;;;;17.18;88.75;99359.69;5073846;28;20477;-86
2022/09/27 07:51:31;;;;;;;21.73;4.45;;;;;;;17.04;90.22;99353.28;5073233;28;20071;-85
2022/09/27 07:53:56;;;;;;;21.50;4.57;;;;;;;17.63;88.54;99350.16;5073225;28;20029;-85
2022/09/27 07:56:22;;;;;;;25.30;4.30;;;;;;;18.29;84.83;99363.81;5072453;28;20466;-85
2022/09/27 07:58:47;;;;;;;22.33;3.45;;;;;;;18.24;83.82;99355.53;5069852;28;20032;-86
2022/09/27 08:01:13;;;;;;;26.17;4.50;;;;;;;18.11;83.82;99342.88;5072855;28;20478;-85
2022/09/27 08:03:39;;;;;;;25.08;4.57;;;;;;;17.42;86.95;99348.97;5072770;28;20055;-86
2022/09/27 08:06:05;;;;;;;27.20;5.13;;;;;;;17.56;86.41;99351.88;5072176;28;20032;-85
2022/09/27 08:08:30;;;;;;;22.20;3.85;;;;;;;16.47;92.23;99348.94;5072450;28;20081;-85
2022/09/27 08:10:56;;;;;;;21.35;4.25;;;;;;;16.62;91.30;99347.25;5072132;28;20036;-85
2022/09/27 08:13:21;;;;;;;18.20;3.08;;;;;;;16.61;91.84;99353.56;5070826;28;20028;-87
2022/09/27 08:15:47;;;;;;;29.30;4.40;;;;;;;16.85;90.51;99343.91;5072470;28;20462;-87
2022/09/27 08:18:13;;;;;;;20.23;3.40;;;;;;;17.97;86.50;99343.63;5072402;28;20090;-86
2022/09/27 08:20:39;;;;;;;18.27;3.58;;;;;;;22.58;66.87;99344.50;5072101;28;20099;-87
2022/09/27 08:23:04;;;;;;;;;;;;;;;23.05;56.19;99332.91;5071636;28;20028;-88
2022/09/27 08:25:29;;;;;;;;;;;;;;;21.05;63.76;99335.38;5072666;28;19913;-87
2022/09/27 08:27:55;;;;;;;;;;;;;;;22.41;60.38;99319.22;5071665;28;19927;-87
2022/09/27 08:30:21;;;;;;;;;;;;;;;22.57;58.79;99326.84;5070012;28;20326;-87
2022/09/27 08:32:46;;;;;;;;;;;;;;;25.28;52.36;99319.97;5072621;28;19959;-87
2022/09/27 08:35:14;;;;;;;;;;;;;;;26.53;47.44;99326.31;5072111;28;19947;-88
2022/09/27 08:37:39;;;;;;;;;;;;;;;28.81;41.28;99320.16;5072651;28;20018;-88
2022/09/27 08:40:05;;;;;;;;;;;;;;;30.75;36.15;99318.44;5072433;28;20378;-88
2022/09/27 08:42:52;;;;;;;;;;;;;;;29.78;36.98;99312.31;5073131;28;20390;-88
2022/09/27 08:45:24;;;;;;;;;;;;;;;35.03;30.29;99317.41;5069526;28;19944;-88
2022/09/27 08:47:53;;;;;;;;;;;;;;;32.70;31.51;99317.84;5076971;28;19917;-88
2022/09/27 08:50:23;;;;;;;;;;;;;;;32.17;31.25;99320.91;5062183;28;20370;-87
2022/09/27 08:53:09;;;;;;;;;;;;;;;31.95;32.61;99319.31;5063831;28;19990;-85
2022/09/27 08:55:36;;;;;;;;;;;;;;;35.24;28.37;99317.16;5048003;28;19916;-85
2022/09/27 08:58:03;;;;;;;;;;;;;;;34.94;28.78;99305.53;5061287;28;19916;-86
2022/09/27 09:00:29;;;;;;;;;;;;;;;38.30;24.82;99303.09;5053158;28;20000;-86
2022/09/27 09:02:55;;;;;;;;;;;;;;;30.73;31.72;99323.31;5073921;28;19920;-86
2022/09/27 09:05:23;;;;;;;;;;;;;;;29.22;35.64;99316.06;5071685;28;19958;-86
2022/09/27 09:08:08;;;;;;;;;;;;;;;27.91;36.19;99333.66;5069921;28;19970;-86
2022/09/27 09:13:45;;;;;;;;;;;;;;;24.51;42.48;99313.19;5072770;28;19958;-85
2022/09/27 09:16:22;;;;;;;;;;;;;;;23.73;45.24;99314.38;5070663;28;20210;-88
2022/09/27 09:19:03;;;;;;;;;;;;;;;25.03;44.01;99314.69;5080516;28;19916;-85
2022/09/27 09:21:43;;;;;;;;;;;;;;;24.21;44.54;99314.88;5070721;28;20054;-85
2022/09/27 09:24:09;;;;;;;;;;;;;;;25.21;43.16;99324.56;5073796;28;20007;-84
2022/09/27 09:26:41;;;;;;;;;;;;;;;23.98;44.03;99316.31;5060764;28;20019;-84
2022/09/27 09:29:15;;;;;;;;;;;;;;;22.11;47.72;99308.13;5072007;28;20369;-84
2022/09/27 09:31:46;;;;;;;;;;;;;;;27.59;39.32;99301.81;5065966;28;19924;-86
2022/09/27 09:34:17;;;;;;;;;;;;;;;31.81;31.98;99285.63;5073120;28;19918;-85
2022/09/27 09:36:48;;;;;;;;;;;;;;;29.86;33.98;99284.81;5071875;28;20377;-86
2022/09/27 09:39:25;;;;;;;;;;;;;;;27.80;36.96;99294.06;5087213;28;19913;-85
2022/09/27 09:41:54;;;;;;;;;;;;;;;35.54;27.88;99278.47;5078413;28;20343;-85
2022/09/27 09:44:28;;;;;;;;;;;;;;;35.92;27.21;99272.97;5083769;28;19920;-86
2022/09/27 09:46:56;;;;;;;;;;;;;;;34.76;27.17;99285.31;5070331;28;19983;-86
2022/09/27 09:49:21;;;;;;;;;;;;;;;32.21;30.86;99276.66;5071552;28;20002;-87
2022/09/27 09:51:50;;;;;;;;;;;;;;;27.91;36.17;99277.00;5074457;28;20341;-86
2022/09/27 09:54:38;;;;;;;;;;;;;;;27.22;37.73;99295.97;5061811;28;20003;-86
2022/09/27 09:57:03;;;;;;;;;;;;;;;23.66;44.18;99288.69;5059118;28;20373;-85
2022/09/27 09:59:34;;;;;;;;;;;;;;;22.63;46.32;99286.88;5057127;28;20003;-84
2022/09/27 10:02:09;;;;;;;;;;;;;;;22.36;47.57;99281.59;5073042;28;19916;-85
2022/09/27 10:04:34;;;;;;;;;;;;;;;22.99;47.98;99291.72;5075047;28;19970;-85
2022/09/27 10:07:00;;;;;;;;;;;;;;;21.65;49.50;99285.69;5053934;28;20343;-88
2022/09/27 10:09:26;;;;;;;;;;;;;;;21.72;49.83;99277.69;5071587;28;19912;-85
2022/09/27 10:11:52;;;;;;;;;;;;;;;21.23;50.92;99289.47;5069454;28;19924;-87
2022/09/27 10:14:18;;;;;;;;;;;;;;;20.41;54.61;99284.75;5070996;28;19916;-87
2022/09/27 10:16:49;;;;;;;;;;;;;;;19.65;57.19;99299.69;5068769;28;19924;-85
2022/09/27 10:19:18;;;;;;;;;;;;;;;20.53;55.05;99286.88;5070682;28;19922;-85
2022/09/27 10:21:45;;;;;;;;;;;;;;;20.68;54.45;99279.63;5073889;28;19916;-85
2022/09/27 10:24:14;;;;;;;;;;;;;;;20.35;54.73;99266.88;5071111;28;19923;-85
2022/09/27 10:26:42;;;;;;;;;;;;;;;19.50;54.97;99268.63;5072172;28;19916;-84
2022/09/27 10:29:13;;;;;;;;;;;;;;;18.21;59.13;99271.72;5075000;28;19912;-84
2022/09/27 10:31:41;;;;;;;;;;;;;;;18.56;61.14;99274.69;5072864;28;19928;-84
2022/09/27 10:34:16;;;;;;;;;;;;;;;18.41;61.36;99273.84;5074360;28;20003;-84
2022/09/27 10:36:41;;;;;;;;;;;;;;;17.42;64.88;99272.00;5074017;28;19979;-84
2022/09/27 10:39:19;;;;;;;;;;;;;;;17.67;66.87;99279.78;5074383;28;19946;-84
2022/09/27 10:41:44;;;;;;;;;;;;;;;17.55;70.44;99266.09;5074538;28;20007;-84
2022/09/27 10:44:19;;;;;;;;;;;;;;;17.75;71.45;99263.81;5090272;28;20382;-84
2022/09/27 10:46:49;;;;;;;;;;;;;;;18.24;70.27;99266.03;5073800;28;19924;-84
2022/09/27 10:49:28;;;;;;;20.33;5.05;;;;;;;17.93;72.01;99260.88;5071612;28;20477;-83
2022/09/27 10:51:57;;;;;;;27.98;4.50;;;;;;;18.53;70.35;99255.59;5073675;28;20041;-84
2022/09/27 10:54:38;;;;;;;21.92;4.47;;;;;;;18.61;68.95;99248.34;5073983;28;20505;-84
2022/09/27 10:57:12;;;;;;;24.02;4.22;;;;;;;18.98;67.17;99243.94;5073792;28;20029;-84
2022/09/27 10:59:41;;;;;;;17.83;4.00;;;;;;;18.15;69.39;99240.56;5072721;28;20056;-84
2022/09/27 11:02:20;;;;;;;17.45;4.28;;;;;;;18.04;69.20;99239.16;5071694;28;20027;-85
2022/09/27 11:05:11;;;;;;;22.38;5.25;;;;;;;17.88;70.59;99246.47;5059586;28;20500;-85
2022/09/27 11:07:47;;;;;;;21.63;3.78;;;;;;;17.54;71.97;99234.44;5062140;28;20112;-84
2022/09/27 11:10:22;;;;;;;17.52;3.85;;;;;;;17.65;71.78;99234.00;5073757;28;20049;-84
2022/09/27 11:13:11;;;;;;;26.58;4.47;;;;;;;17.61;73.81;99233.56;5059599;28;20021;-84
2022/09/27 11:15:53;;;;;;;19.80;4.22;;;;;;;16.99;76.54;99229.16;5061197;28;20031;-84
2022/09/27 11:18:43;;;;;;;20.67;4.78;;;;;;;17.93;75.35;99217.53;5072422;28;20090;-84
2022/09/27 11:21:46;;;;;;;29.75;4.32;;;;;;;17.35;76.83;99227.78;5062440;28;20052;-84
2022/09/27 11:24:33;;;;;;;22.95;4.47;;;;;;;17.55;77.75;99231.59;5071744;28;20162;-85
2022/09/27 11:27:17;;;;;;;35.63;4.22;;;;;;;17.08;76.96;99242.38;5073364;28;20040;-84
2022/09/27 11:29:58;;;;;;;24.35;4.35;;;;;;;17.94;75.08;99237.78;5071978;28;20047;-84
2022/09/27 11:32:41;;;;;;;24.35;4.35;;;;;;;17.72;74.64;99234.97;5072853;28;20044;-84
2022/09/27 11:35:06;;;;;;;;;;;;;;;17.70;74.26;99236.16;5072411;28;20036;-84
2022/09/27 11:37:32;;;;;;;;;;;;;;;17.45;76.90;99233.66;5072217;28;19920;-84
2022/09/27 11:40:11;;;;;;;;;;;;;;;17.61;78.04;99236.22;5072715;28;20262;-84
2022/09/27 11:42:42;;;;;;;;;;;;;;;17.86;80.79;99236.03;5072830;28;19965;-84
2022/09/27 11:45:19;;;;;;;;;;;;;;;16.84;83.69;99236.19;5073474;28;19919;-84
2022/09/27 11:47:45;;;;;;;;;;;;;;;17.45;84.62;99234.50;5072598;28;20362;-84
2022/09/27 11:50:23;;;;;;;;;;;;;;;17.25;84.96;99234.13;5073354;28;19920;-84
2022/09/27 11:52:58;;;;;;;;;;;;;;;17.17;85.40;99226.25;5073309;28;19932;-85
2022/09/27 11:55:32;;;;;;;;;;;;;;;17.50;84.63;99214.59;5055894;28;20381;-84
2022/09/27 11:58:12;;;;;;;;;;;;;;;17.86;84.09;99211.31;5072111;28;19912;-85
2022/09/27 12:00:45;;;;;;;;;;;;;;;17.30;84.62;99214.22;5070888;28;20412;-85
2022/09/27 12:03:10;;;;;;;;;;;;;;;17.04;85.92;99210.91;5072865;28;19913;-85
2022/09/27 12:05:43;;;;;;;;;;;;;;;16.95;87.08;99205.84;5072833;28;20404;-85